createdAt,value
2024-03-24T00:07:24.828Z,3.59
2024-03-24T00:12:44.754Z,3.63
2024-03-24T00:18:04.623Z,3.54
2024-03-24T00:23:23.764Z,3.51
2024-03-24T00:34:02.560Z,3.55
2024-03-24T00:39:21.385Z,3.56
2024-03-24T00:49:59.201Z,3.43
2024-03-24T00:55:18.359Z,3.4
2024-03-24T01:07:12.262Z,3.36
2024-03-24T01:11:15.550Z,3.31
2024-03-24T01:16:34.620Z,3.27
2024-03-24T01:17:19.475Z,3.25
2024-03-24T01:22:38.846Z,3.25
2024-03-24T01:27:57.650Z,3.12
2024-03-24T01:38:37.022Z,2.63
2024-03-24T01:43:56.328Z,2.54
2024-03-24T01:54:34.465Z,2.52
2024-03-24T01:59:53.676Z,2.53
2024-03-24T02:05:13.076Z,2.45
2024-03-24T02:10:32.204Z,2.34
2024-03-24T02:21:11.419Z,2.24
2024-03-24T02:26:29.815Z,2.28
2024-03-24T02:37:08.021Z,2.5
2024-03-24T02:42:26.850Z,2.64
2024-03-24T02:47:46.869Z,2.79
2024-03-24T02:53:05.564Z,2.9
2024-03-24T03:03:44.757Z,3.01
2024-03-24T03:09:04.293Z,3.08
2024-03-24T03:19:43.234Z,3.21
2024-03-24T03:25:02.919Z,3.01
2024-03-24T03:30:22.599Z,2.93
2024-03-24T03:35:41.736Z,2.84
2024-03-24T03:46:20.015Z,2.8
2024-03-24T03:51:39.263Z,2.87
2024-03-24T04:02:18.364Z,2.83
2024-03-24T04:07:37.314Z,2.73
2024-03-24T04:12:57.226Z,2.7
2024-03-24T04:18:16.266Z,2.79
2024-03-24T04:23:34.965Z,2.87
2024-03-24T04:28:54.504Z,2.93
2024-03-24T04:34:13.914Z,2.98
2024-03-24T04:44:52.589Z,2.98
2024-03-24T04:50:11.768Z,3.01
2024-03-24T04:55:30.651Z,3.05
2024-03-24T05:00:49.889Z,3.08
2024-03-24T05:06:09.404Z,3.08
2024-03-24T05:11:29.030Z,3.12
2024-03-24T05:22:06.970Z,3.17
2024-03-24T05:27:26.268Z,3.19
2024-03-24T05:38:04.700Z,3.25
2024-03-24T05:43:23.533Z,3.32
2024-03-24T05:48:42.825Z,3.35
2024-03-24T05:54:01.887Z,3.4
2024-03-24T06:04:40.169Z,3.45
2024-03-24T06:09:59.715Z,3.51
2024-03-24T06:20:38.115Z,3.63
2024-03-24T06:25:57.015Z,3.68
2024-03-24T06:31:16.157Z,3.79
2024-03-24T06:36:35.699Z,3.94
2024-03-24T06:47:14.770Z,4.31
2024-03-24T06:52:33.977Z,4.38
2024-03-24T07:03:12.351Z,4.59
2024-03-24T07:08:32.092Z,4.64
2024-03-24T07:13:51.062Z,4.57
2024-03-24T07:19:10.447Z,4.61
2024-03-24T07:24:29.995Z,4.9
2024-03-24T07:29:48.896Z,5.27
2024-03-24T07:35:08.891Z,5.38
2024-03-24T07:45:47.715Z,4.83
2024-03-24T07:51:05.841Z,5.17
2024-03-24T07:56:25.588Z,5.92
2024-03-24T08:01:44.866Z,5.88
2024-03-24T08:07:05.110Z,5.19
2024-03-24T08:12:22.716Z,4.88
2024-03-24T08:17:42.016Z,4.96
2024-03-24T08:28:19.716Z,5.46
2024-03-24T08:33:39.468Z,5.41
2024-03-24T08:44:19.778Z,5.58
2024-03-24T08:49:38.724Z,5.37
2024-03-24T08:54:58.404Z,5.24
2024-03-24T09:00:18.633Z,5.27
2024-03-24T09:10:56.422Z,4.96
2024-03-24T09:16:16.390Z,5.1
2024-03-24T09:26:54.574Z,5.31
2024-03-24T09:32:14.283Z,5.3
2024-03-24T09:37:33.900Z,5.19
2024-03-24T09:42:52.005Z,5.19
2024-03-24T09:48:11.769Z,5.34
2024-03-24T09:53:30.049Z,5.22
2024-03-24T09:58:49.798Z,5.01
2024-03-24T10:09:27.672Z,4.88
2024-03-24T10:14:47.282Z,4.96
2024-03-24T10:25:26.398Z,5.03
2024-03-24T10:30:45.897Z,5.1
2024-03-24T10:36:04.393Z,4.96
2024-03-24T10:41:23.817Z,4.78
2024-03-24T10:52:02.046Z,4.51
2024-03-24T10:57:21.962Z,4.57
2024-03-24T11:08:00.522Z,5.5
2024-03-24T11:13:19.783Z,5.69
2024-03-24T11:18:39.495Z,5.15
2024-03-24T11:23:59.643Z,5.01
2024-03-24T11:29:17.841Z,5.06
2024-03-24T11:34:37.533Z,5.23
2024-03-24T11:45:15.626Z,4.94
2024-03-24T11:50:35.075Z,4.69
2024-03-24T11:55:54.716Z,4.71
2024-03-24T12:01:13.847Z,4.92
2024-03-24T12:11:51.630Z,5.24
2024-03-24T12:17:11.548Z,5.24
2024-03-24T12:27:48.888Z,5.07
2024-03-24T12:33:08.204Z,5.43
2024-03-24T12:43:46.075Z,6.8
2024-03-24T12:49:05.842Z,6.73
2024-03-24T12:54:25.389Z,7.01
2024-03-24T12:59:44.772Z,7.22
2024-03-24T13:10:23.422Z,6.02
2024-03-24T13:15:42.972Z,5.12
2024-03-24T13:26:21.477Z,5.46
2024-03-24T13:31:40.546Z,5.68
2024-03-24T13:36:59.290Z,6.25
2024-03-24T13:42:18.338Z,6.84
2024-03-24T13:52:56.598Z,6.49
2024-03-24T13:58:15.789Z,6.58
2024-03-24T14:08:55.071Z,7.3
2024-03-24T14:14:14.313Z,7.74
2024-03-24T14:19:33.441Z,7.36
2024-03-24T14:24:52.723Z,7.11
2024-03-24T14:30:12.311Z,7.11
2024-03-24T14:35:31.900Z,7.15
2024-03-24T14:40:50.871Z,7.16
2024-03-24T14:51:29.308Z,7.95
2024-03-24T14:56:48.921Z,8.42
2024-03-24T15:02:08.012Z,8.49
2024-03-24T15:07:27.898Z,8.17
2024-03-24T15:12:48.220Z,8.01
2024-03-24T15:18:06.701Z,7.81
2024-03-24T15:23:26.306Z,7.9
2024-03-24T15:34:05.100Z,7.97
2024-03-24T15:39:24.037Z,7.87
2024-03-24T15:44:44.744Z,7.52
2024-03-24T15:50:01.463Z,7.39
2024-03-24T15:55:20.682Z,7.33
2024-03-24T16:00:39.777Z,7.3
2024-03-24T16:05:58.747Z,7.26
2024-03-24T16:16:38.397Z,7.15
2024-03-24T16:21:57.912Z,7.08
2024-03-24T16:32:35.739Z,6.23
2024-03-24T16:37:56.020Z,5.1
2024-03-24T16:43:12.983Z,4.94
2024-03-24T16:48:32.257Z,5.12
2024-03-24T16:59:10.923Z,5.48
2024-03-24T17:04:30.454Z,5.44
2024-03-24T17:15:08.982Z,5.61
2024-03-24T17:20:28.617Z,5.36
2024-03-24T17:25:48.007Z,4.48
2024-03-24T17:31:06.367Z,4.13
2024-03-24T17:41:44.268Z,4.14
2024-03-24T17:47:03.775Z,4.11
2024-03-24T17:57:42.709Z,3.99
2024-03-24T18:03:01.530Z,3.97
2024-03-24T18:08:21.028Z,3.93
2024-03-24T18:13:40.839Z,3.93
2024-03-24T18:19:00.893Z,4.03
2024-03-24T18:24:19.367Z,4.17
2024-03-24T18:34:58.854Z,4.23
2024-03-24T18:40:18.368Z,4.27
2024-03-24T18:45:37.619Z,4.27
2024-03-24T18:50:56.871Z,4.28
2024-03-24T18:56:16.448Z,4.41
2024-03-24T19:01:35.767Z,4.44
2024-03-24T19:07:19.620Z,4.51
2024-03-24T19:12:38.590Z,4.58
2024-03-24T19:17:57.514Z,4.58
2024-03-24T19:23:16.318Z,4.64
2024-03-24T19:33:56.213Z,4.61
2024-03-24T19:39:14.310Z,4.67
2024-03-24T19:49:52.351Z,4.75
2024-03-24T19:55:12.031Z,4.88
2024-03-24T20:00:30.723Z,4.9
2024-03-24T20:05:50.567Z,4.94
2024-03-24T20:16:29.504Z,5.07
2024-03-24T20:21:48.396Z,5.05
2024-03-24T20:32:27.895Z,4.92
2024-03-24T20:37:46.681Z,4.89
2024-03-24T20:43:05.613Z,4.89
2024-03-24T20:48:25.495Z,4.9
2024-03-24T20:59:03.351Z,4.96
2024-03-24T21:04:23.082Z,5.03
2024-03-24T21:15:01.454Z,5.15
2024-03-24T21:20:20.556Z,5.15
2024-03-24T21:30:59.027Z,5.1
2024-03-24T21:36:17.971Z,5.17
2024-03-24T21:41:37.443Z,5.16
2024-03-24T21:46:57.057Z,5.15
2024-03-24T21:57:34.694Z,5.09
2024-03-24T22:02:54.126Z,5.12
2024-03-24T22:08:22.803Z,5.1
2024-03-24T22:13:32.161Z,5.1
2024-03-24T22:24:10.633Z,5.15
2024-03-24T22:29:30.116Z,5.1
2024-03-24T22:40:08.820Z,5.15
2024-03-24T22:45:28.243Z,5.15
2024-03-24T22:50:47.296Z,5.12
2024-03-24T22:56:06.374Z,5.07
2024-03-24T23:01:25.451Z,5.13
2024-03-24T23:06:44.631Z,5.16
2024-03-24T23:12:04.322Z,5.12
2024-03-24T23:22:42.734Z,5.09
2024-03-24T23:28:01.565Z,5.1
2024-03-24T23:38:39.999Z,5.1
2024-03-24T23:43:59.660Z,5.07
2024-03-24T23:49:19.006Z,5.05
2024-03-24T23:54:38.472Z,5.03
